createdAt,value
2022-09-23T09:48:25.888Z,508.00
2022-09-23T09:49:26.827Z,565.00
2022-09-23T09:50:26.678Z,581.00
2022-09-23T09:51:26.816Z,585.00
2022-09-23T09:52:26.603Z,587.00
2022-09-23T09:53:26.740Z,588.00
2022-09-23T09:54:26.424Z,1462.00
2022-09-23T09:55:48.051Z,508.00
2022-09-23T09:56:43.030Z,557.00
2022-09-23T09:57:43.116Z,564.00
2022-09-23T09:58:42.965Z,572.00
2022-09-23T09:59:43.029Z,577.00
2022-09-23T10:00:42.839Z,579.00
2022-09-23T10:01:42.993Z,583.00
2022-09-23T10:02:42.752Z,585.00
2022-09-23T10:03:42.888Z,583.00
2022-09-23T10:04:42.735Z,584.00
2022-09-23T10:05:42.805Z,590.00
2022-09-23T10:06:42.518Z,589.00
2022-09-23T10:07:42.672Z,582.00
2022-09-23T10:08:42.396Z,583.00
2022-09-23T10:09:42.443Z,584.00
2022-09-23T10:10:42.470Z,582.00
2022-09-23T10:11:42.171Z,578.00
2022-09-23T10:12:42.324Z,578.00
2022-09-23T10:13:42.015Z,574.00
2022-09-23T10:14:42.065Z,572.00
2022-09-23T10:15:44.733Z,572.00
2022-09-23T10:16:42.294Z,571.00
2022-09-23T10:17:41.692Z,572.00
2022-09-23T10:18:42.017Z,578.00
2022-09-23T10:19:41.538Z,578.00
2022-09-23T10:20:41.559Z,577.00
2022-09-23T10:21:41.345Z,574.00
2022-09-23T10:22:41.494Z,575.00
2022-09-23T10:23:41.169Z,575.00
2022-09-23T10:24:41.228Z,573.00
2022-09-23T10:25:40.996Z,569.00
2022-09-23T10:26:41.125Z,568.00
2022-09-23T10:27:40.822Z,566.00
2022-09-23T10:28:41.066Z,562.00
2022-09-23T10:29:40.650Z,555.00
2022-09-23T10:30:40.746Z,549.00
2022-09-23T10:31:40.490Z,545.00
2022-09-23T10:32:40.607Z,540.00
2022-09-23T10:33:40.335Z,538.00
2022-09-23T10:34:40.470Z,533.00
2022-09-23T10:35:40.154Z,532.00
2022-09-23T10:36:44.489Z,528.00
2022-09-23T10:37:39.993Z,526.00
2022-09-23T10:38:40.024Z,523.00
2022-09-23T10:39:39.818Z,517.00
2022-09-23T10:40:40.086Z,517.00
2022-09-23T10:41:39.648Z,516.00
2022-09-23T10:42:39.928Z,513.00
2022-09-23T10:43:39.468Z,509.00
2022-09-23T10:44:39.557Z,505.00
2022-09-23T10:45:41.198Z,503.00
2022-09-23T10:46:39.488Z,501.00
2022-09-23T10:47:39.123Z,501.00
2022-09-23T10:48:39.219Z,501.00
2022-09-23T10:49:38.971Z,499.00
2022-09-23T10:50:38.987Z,500.00
2022-09-23T10:51:38.778Z,500.00
2022-09-23T10:52:38.923Z,496.00
2022-09-23T10:53:38.628Z,493.00
2022-09-23T10:54:38.707Z,492.00
2022-09-23T10:55:38.442Z,492.00
2022-09-23T10:56:38.455Z,489.00
2022-09-23T10:57:38.266Z,487.00
2022-09-23T10:58:38.397Z,489.00
2022-09-23T10:59:38.108Z,484.00
2022-09-23T11:00:38.151Z,485.00
2022-09-23T11:01:37.956Z,483.00
2022-09-23T11:02:38.007Z,482.00
2022-09-23T11:03:37.748Z,481.00
2022-09-23T11:04:37.999Z,479.00
2022-09-23T11:05:37.563Z,477.00
2022-09-23T11:06:37.604Z,474.00
2022-09-23T11:07:37.523Z,475.00
2022-09-23T11:08:37.478Z,475.00
2022-09-23T11:09:37.206Z,476.00
2022-09-23T11:10:52.471Z,481.00
2022-09-23T11:11:37.016Z,489.00
2022-09-23T11:12:37.094Z,493.00
2022-09-23T11:13:36.823Z,493.00
2022-09-23T11:14:36.937Z,491.00
2022-09-23T11:15:36.658Z,489.00
2022-09-23T11:16:36.850Z,485.00
2022-09-23T11:17:36.516Z,483.00
2022-09-23T11:18:36.578Z,480.00
2022-09-23T11:19:36.318Z,477.00
2022-09-23T11:20:36.408Z,476.00
2022-09-23T11:21:36.220Z,476.00
2022-09-23T11:22:36.221Z,477.00
2022-09-23T11:23:35.955Z,476.00
2022-09-23T11:24:36.041Z,475.00
2022-09-23T11:25:35.776Z,474.00
2022-09-23T11:26:35.822Z,478.00
2022-09-23T11:27:35.804Z,479.00
2022-09-23T11:28:35.571Z,481.00
2022-09-23T11:29:35.544Z,483.00
2022-09-23T11:30:35.362Z,484.00
2022-09-23T11:31:35.431Z,485.00
2022-09-23T11:32:35.163Z,484.00
2022-09-23T11:33:35.338Z,483.00
2022-09-23T11:34:34.977Z,485.00
2022-09-23T11:35:35.019Z,487.00
2022-09-23T11:36:34.803Z,490.00
2022-09-23T11:37:34.889Z,490.00
2022-09-23T11:38:34.616Z,487.00
2022-09-23T11:39:34.702Z,487.00
2022-09-23T11:40:34.582Z,486.00
2022-09-23T11:41:34.544Z,487.00
2022-09-23T11:42:34.273Z,485.00
2022-09-23T11:43:34.305Z,486.00
2022-09-23T11:44:34.076Z,485.00
2022-09-23T11:45:34.276Z,485.00
2022-09-23T11:46:33.891Z,487.00
2022-09-23T11:47:37.716Z,489.00
2022-09-23T11:48:33.704Z,489.00
2022-09-23T11:49:33.871Z,491.00
2022-09-23T11:50:33.514Z,494.00
2022-09-23T11:51:33.600Z,501.00
2022-09-23T11:52:33.320Z,524.00
2022-09-23T11:53:33.422Z,574.00
2022-09-23T11:54:33.142Z,557.00
2022-09-23T11:55:33.223Z,554.00
2022-09-23T11:56:35.785Z,553.00
2022-09-23T11:57:45.204Z,558.00
2022-09-23T11:58:32.858Z,560.00
2022-09-23T11:59:40.290Z,561.00
2022-09-23T12:00:32.604Z,556.00
2022-09-23T12:01:37.571Z,553.00
2022-09-23T12:02:32.553Z,554.00
2022-09-23T12:03:43.398Z,557.00
2022-09-23T12:04:32.397Z,555.00
2022-09-23T12:05:32.438Z,556.00
2022-09-23T12:06:32.045Z,557.00
2022-09-23T12:07:32.121Z,559.00
2022-09-23T12:08:31.849Z,561.00
2022-09-23T12:09:56.683Z,566.00
2022-09-23T12:10:31.642Z,566.00
2022-09-23T12:11:32.677Z,565.00
2022-09-23T12:12:31.580Z,573.00
2022-09-23T12:13:31.337Z,578.00
2022-09-23T12:14:31.427Z,574.00
2022-09-23T12:15:31.183Z,568.00
2022-09-23T12:16:32.177Z,567.00
2022-09-23T12:17:31.103Z,567.00
2022-09-23T12:18:30.841Z,569.00
2022-09-23T12:19:30.856Z,572.00
2022-09-23T12:20:30.640Z,572.00
2022-09-23T12:21:49.762Z,577.00
2022-09-23T12:22:30.434Z,576.00
2022-09-23T12:23:30.456Z,579.00
2022-09-23T12:24:30.256Z,586.00
2022-09-23T12:25:30.437Z,589.00
2022-09-23T12:26:30.030Z,601.00
2022-09-23T12:27:30.131Z,602.00
2022-09-23T12:28:29.844Z,597.00
2022-09-23T12:29:29.923Z,596.00
2022-09-23T12:30:29.696Z,596.00
2022-09-23T12:31:29.739Z,597.00
2022-09-23T12:32:29.429Z,597.00
2022-09-23T12:33:30.467Z,596.00
2022-09-23T12:34:29.443Z,597.00
2022-09-23T12:35:29.114Z,597.00
2022-09-23T12:36:29.150Z,602.00
2022-09-23T12:37:28.911Z,618.00
2022-09-23T12:38:28.949Z,616.00
2022-09-23T12:39:29.432Z,636.00
2022-09-23T12:40:28.673Z,636.00
2022-09-23T12:41:28.668Z,631.00
2022-09-23T12:42:31.116Z,623.00
2022-09-23T12:43:28.407Z,654.00
2022-09-23T12:44:28.158Z,652.00
2022-09-23T12:45:28.338Z,625.00
2022-09-23T12:46:27.946Z,639.00
2022-09-23T12:47:28.034Z,614.00
2022-09-23T12:48:27.737Z,609.00
2022-09-23T12:49:28.723Z,610.00
2022-09-23T12:50:27.722Z,611.00
2022-09-23T12:51:27.470Z,614.00
2022-09-23T12:52:27.435Z,612.00
2022-09-23T12:53:27.193Z,610.00
2022-09-23T12:54:27.261Z,609.00
2022-09-23T12:55:26.980Z,606.00
2022-09-23T12:56:27.048Z,610.00
2022-09-23T12:57:26.794Z,620.00
2022-09-23T12:58:26.837Z,641.00
2022-09-23T12:59:26.524Z,698.00
2022-09-23T13:00:29.840Z,641.00
2022-09-23T13:01:26.548Z,627.00
2022-09-23T13:02:26.424Z,627.00
2022-09-23T13:03:26.102Z,749.00
2022-09-23T13:04:26.069Z,691.00
2022-09-23T13:05:25.829Z,651.00
2022-09-23T13:06:25.931Z,640.00
2022-09-23T13:07:25.595Z,634.00
2022-09-23T13:08:25.657Z,641.00
2022-09-23T13:09:25.415Z,642.00
2022-09-23T13:10:25.430Z,651.00
2022-09-23T13:11:25.129Z,656.00
2022-09-23T13:12:25.137Z,762.00
2022-09-23T13:13:24.893Z,658.00
2022-09-23T13:14:27.576Z,647.00
2022-09-23T13:15:24.703Z,645.00
2022-09-23T13:16:24.779Z,652.00
2022-09-23T13:17:24.440Z,649.00
2022-09-23T13:18:24.494Z,655.00
2022-09-23T13:19:24.210Z,750.00
2022-09-23T13:20:24.211Z,738.00
2022-09-23T13:21:24.251Z,700.00
2022-09-23T13:22:23.857Z,688.00
2022-09-23T13:23:23.900Z,683.00
2022-09-23T13:24:23.623Z,692.00
2022-09-23T13:25:23.662Z,675.00
2022-09-23T13:26:23.374Z,659.00
2022-09-23T13:27:24.010Z,645.00
2022-09-23T13:28:23.125Z,638.00
2022-09-23T13:29:23.144Z,648.00
2022-09-23T13:30:26.215Z,676.00
2022-09-23T13:31:22.989Z,671.00
2022-09-23T13:32:22.650Z,659.00
2022-09-23T13:33:22.730Z,660.00
2022-09-23T13:34:22.407Z,660.00
2022-09-23T13:35:22.426Z,657.00
2022-09-23T13:36:22.212Z,652.00
2022-09-23T13:37:23.006Z,657.00
2022-09-23T13:38:21.937Z,667.00
2022-09-23T13:39:22.036Z,755.00
2022-09-23T13:40:21.827Z,746.00
2022-09-23T13:41:21.748Z,735.00
2022-09-23T13:42:21.451Z,723.00
2022-09-23T13:43:21.457Z,713.00
2022-09-23T13:44:21.207Z,712.00
2022-09-23T13:45:21.307Z,700.00
2022-09-23T13:46:21.154Z,690.00
2022-09-23T13:47:21.071Z,683.00
2022-09-23T13:48:20.722Z,679.00
2022-09-23T13:49:20.744Z,685.00
2022-09-23T13:50:20.484Z,693.00
2022-09-23T13:51:20.651Z,694.00
2022-09-23T13:52:20.248Z,698.00
2022-09-23T13:53:20.287Z,696.00
2022-09-23T13:54:20.016Z,688.00
2022-09-23T13:55:20.033Z,676.00
2022-09-23T13:56:19.782Z,672.00
2022-09-23T13:57:19.890Z,787.00
2022-09-23T13:58:19.568Z,722.00
2022-09-23T13:59:19.585Z,689.00
2022-09-23T14:00:19.307Z,665.00
2022-09-23T14:01:19.370Z,659.00
2022-09-23T14:02:19.127Z,658.00
2022-09-23T14:03:19.192Z,654.00
2022-09-23T14:04:18.850Z,652.00
2022-09-23T14:05:18.874Z,655.00
2022-09-23T14:06:18.589Z,667.00
2022-09-23T14:07:18.712Z,717.00
2022-09-23T14:08:18.354Z,710.00
2022-09-23T14:09:18.462Z,703.00
2022-09-23T14:10:18.105Z,696.00
2022-09-23T14:11:18.104Z,699.00
2022-09-23T14:12:17.866Z,706.00
2022-09-23T14:13:21.311Z,687.00
2022-09-23T14:14:17.615Z,678.00
2022-09-23T14:15:17.671Z,680.00
2022-09-23T14:16:17.420Z,675.00
2022-09-23T14:17:17.456Z,665.00
2022-09-23T14:18:17.121Z,660.00
2022-09-23T14:19:17.139Z,657.00
2022-09-23T14:20:16.887Z,655.00
2022-09-23T14:21:17.007Z,654.00
2022-09-23T14:22:16.651Z,658.00
2022-09-23T14:23:16.863Z,664.00
2022-09-23T14:24:16.420Z,662.00
2022-09-23T14:25:16.431Z,660.00
2022-09-23T14:26:16.269Z,663.00
2022-09-23T14:27:16.298Z,658.00
2022-09-23T14:28:15.935Z,666.00
2022-09-23T14:29:15.942Z,662.00
2022-09-23T14:30:15.700Z,655.00
2022-09-23T14:31:15.778Z,672.00
2022-09-23T14:32:15.454Z,685.00
2022-09-23T14:33:15.577Z,672.00
2022-09-23T14:34:15.213Z,664.00
2022-09-23T14:35:15.219Z,668.00
2022-09-23T14:36:14.955Z,670.00
2022-09-23T14:37:15.012Z,669.00
2022-09-23T14:38:14.707Z,665.00
2022-09-23T14:39:14.816Z,668.00
2022-09-23T14:40:14.641Z,664.00
2022-09-23T14:41:14.562Z,662.00
2022-09-23T14:42:14.220Z,663.00
2022-09-23T14:43:14.277Z,659.00
2022-09-23T14:44:13.971Z,659.00
2022-09-23T14:45:14.041Z,660.00
2022-09-23T14:46:13.820Z,663.00
2022-09-23T14:47:13.986Z,672.00
2022-09-23T14:48:13.478Z,737.00
2022-09-23T14:49:13.502Z,710.00
2022-09-23T14:50:13.233Z,693.00
2022-09-23T14:51:17.084Z,691.00
2022-09-23T14:52:12.981Z,679.00
2022-09-23T14:53:13.035Z,681.00
2022-09-23T14:54:12.724Z,675.00
2022-09-23T14:55:12.779Z,663.00
2022-09-23T14:56:12.478Z,658.00
2022-09-23T14:57:12.589Z,653.00
2022-09-23T14:58:12.233Z,650.00
2022-09-23T14:59:12.309Z,646.00
2022-09-23T15:00:11.983Z,643.00
2022-09-23T15:01:12.171Z,632.00
2022-09-23T15:02:11.757Z,621.00
2022-09-23T15:03:11.949Z,613.00
2022-09-23T15:04:11.511Z,608.00
2022-09-23T15:05:11.535Z,604.00
2022-09-23T15:06:11.295Z,599.00
2022-09-23T15:07:11.330Z,597.00
2022-09-23T15:08:11.079Z,593.00
2022-09-23T15:09:11.128Z,588.00
2022-09-23T15:10:10.832Z,580.00
2022-09-23T15:11:10.905Z,577.00
2022-09-23T15:12:10.614Z,574.00
2022-09-23T15:13:10.661Z,572.00
2022-09-23T15:14:36.185Z,570.00
2022-09-23T15:15:10.567Z,565.00
2022-09-23T15:16:10.183Z,563.00
2022-09-23T15:17:10.174Z,559.00
2022-09-23T15:18:09.926Z,556.00
2022-09-23T15:19:09.984Z,554.00
2022-09-23T15:20:09.691Z,552.00
2022-09-23T15:21:09.796Z,552.00
2022-09-23T15:22:09.457Z,548.00
2022-09-23T15:23:09.464Z,547.00
2022-09-23T15:24:09.219Z,545.00
2022-09-23T15:25:09.292Z,540.00
2022-09-23T15:26:08.996Z,540.00
2022-09-23T15:27:09.102Z,536.00
2022-09-23T15:28:08.779Z,536.00
2022-09-23T15:29:08.777Z,533.00
2022-09-23T15:30:12.601Z,531.00
2022-09-23T15:31:08.761Z,530.00
2022-09-23T15:32:08.319Z,528.00
2022-09-23T15:33:08.385Z,528.00
2022-09-23T15:34:08.126Z,530.00
2022-09-23T15:35:08.173Z,528.00
2022-09-23T15:36:07.887Z,528.00
2022-09-23T15:37:08.010Z,527.00
2022-09-23T15:38:07.772Z,525.00
2022-09-23T15:39:07.754Z,524.00
2022-09-23T15:40:07.481Z,525.00
2022-09-23T15:41:07.508Z,522.00
2022-09-23T15:42:07.217Z,524.00
2022-09-23T15:43:07.236Z,523.00
2022-09-23T15:44:07.130Z,522.00
2022-09-23T15:45:07.138Z,520.00
2022-09-23T15:46:06.881Z,517.00
2022-09-23T15:47:06.847Z,514.00
2022-09-23T15:48:06.562Z,512.00
2022-09-23T15:49:06.691Z,511.00
2022-09-23T15:50:06.394Z,511.00
2022-09-23T15:51:06.466Z,510.00
2022-09-23T15:52:06.134Z,512.00
2022-09-23T15:53:06.223Z,515.00
2022-09-23T15:54:05.933Z,512.00
2022-09-23T15:55:05.995Z,513.00
2022-09-23T15:56:05.780Z,512.00
2022-09-23T15:57:05.775Z,511.00
2022-09-23T15:58:05.503Z,510.00
2022-09-23T15:59:05.649Z,512.00
2022-09-23T16:00:05.295Z,510.00
2022-09-23T16:01:05.478Z,509.00
2022-09-23T16:02:05.134Z,509.00
2022-09-23T16:03:05.369Z,510.00
2022-09-23T16:04:04.884Z,510.00
2022-09-23T16:05:04.920Z,510.00
2022-09-23T16:06:04.775Z,507.00
2022-09-23T16:07:04.789Z,507.00
2022-09-23T16:08:08.725Z,506.00
2022-09-23T16:09:04.528Z,504.00
2022-09-23T16:10:04.228Z,501.00
2022-09-23T16:11:04.311Z,502.00
2022-09-23T16:12:04.026Z,503.00
2022-09-23T16:13:04.102Z,507.00
2022-09-23T16:14:03.808Z,506.00
2022-09-23T16:15:03.950Z,504.00
2022-09-23T16:16:03.699Z,506.00
2022-09-23T16:17:03.674Z,507.00
2022-09-23T16:18:03.400Z,508.00
2022-09-23T16:19:03.478Z,507.00
2022-09-23T16:20:03.196Z,507.00
2022-09-23T16:21:03.395Z,506.00
2022-09-23T16:22:02.983Z,505.00
2022-09-23T16:23:03.024Z,654.00
2022-09-23T16:24:02.778Z,539.00
2022-09-23T16:25:02.804Z,550.00
2022-09-23T16:26:02.560Z,618.00
2022-09-23T16:27:02.727Z,626.00
2022-09-23T16:28:02.352Z,601.00
2022-09-23T16:29:02.409Z,602.00
2022-09-23T16:30:02.265Z,616.00
2022-09-23T16:31:02.352Z,639.00
2022-09-23T16:32:01.999Z,626.00
2022-09-23T16:33:02.089Z,623.00
2022-09-23T16:34:01.767Z,625.00
2022-09-23T16:35:01.881Z,630.00
2022-09-23T16:36:01.590Z,637.00
2022-09-23T16:37:01.689Z,646.00
2022-09-23T16:38:01.396Z,653.00
2022-09-23T16:39:01.592Z,661.00
2022-09-23T16:40:01.216Z,666.00
2022-09-23T16:41:01.482Z,675.00
2022-09-23T16:42:01.010Z,687.00
2022-09-23T16:43:01.036Z,687.00
2022-09-23T16:44:00.830Z,692.00
2022-09-23T16:45:00.928Z,689.00
2022-09-23T16:46:00.748Z,687.00
2022-09-23T16:47:00.614Z,690.00
2022-09-23T16:48:00.372Z,689.00
2022-09-23T16:49:00.467Z,687.00
2022-09-23T16:50:00.237Z,690.00
2022-09-23T16:51:00.255Z,697.00
2022-09-23T16:51:59.932Z,700.00
2022-09-23T16:52:59.946Z,700.00
2022-09-23T16:53:59.723Z,698.00
2022-09-23T16:54:59.793Z,705.00
2022-09-23T16:55:59.508Z,708.00
2022-09-23T16:56:59.575Z,703.00
2022-09-23T16:57:59.267Z,696.00
2022-09-23T16:58:59.359Z,691.00
2022-09-23T16:59:59.047Z,689.00
2022-09-23T17:00:59.150Z,685.00
2022-09-23T17:01:58.918Z,682.00
2022-09-23T17:02:58.982Z,684.00
2022-09-23T17:03:58.593Z,686.00
2022-09-23T17:04:58.608Z,693.00
2022-09-23T17:05:58.360Z,726.00
2022-09-23T17:06:58.417Z,707.00
2022-09-23T17:07:58.123Z,707.00
2022-09-23T17:08:58.336Z,704.00
2022-09-23T17:09:57.896Z,695.00
2022-09-23T17:10:58.033Z,693.00
2022-09-23T17:11:57.669Z,698.00
2022-09-23T17:12:57.729Z,702.00
2022-09-23T17:13:57.410Z,706.00
2022-09-23T17:14:57.475Z,715.00
2022-09-23T17:15:57.222Z,757.00
2022-09-23T17:16:57.227Z,723.00
2022-09-23T17:17:56.934Z,709.00
2022-09-23T17:18:56.994Z,713.00
2022-09-23T17:19:56.682Z,680.00
2022-09-23T17:20:56.794Z,675.00
2022-09-23T17:21:56.445Z,676.00
2022-09-23T17:22:56.528Z,890.00
2022-09-23T17:23:56.206Z,797.00
2022-09-23T17:24:56.329Z,723.00
2022-09-23T17:25:55.953Z,713.00
2022-09-23T17:26:56.077Z,707.00
2022-09-23T17:27:55.713Z,721.00
2022-09-23T17:28:55.722Z,720.00
2022-09-23T17:29:55.491Z,722.00
2022-09-23T17:30:55.513Z,714.00
2022-09-23T17:31:55.242Z,1553.00
2022-09-23T17:32:55.290Z,776.00
2022-09-23T17:33:54.948Z,1263.00
2022-09-23T17:34:54.946Z,761.00
2022-09-23T17:35:54.693Z,752.00
2022-09-23T17:36:54.765Z,744.00
2022-09-23T17:37:54.452Z,731.00
2022-09-23T17:38:54.519Z,721.00
2022-09-23T17:39:54.175Z,727.00
2022-09-23T17:40:54.213Z,729.00
2022-09-23T17:41:53.926Z,726.00
2022-09-23T17:42:53.913Z,737.00
2022-09-23T17:43:53.653Z,723.00
2022-09-23T17:44:53.737Z,731.00
2022-09-23T17:45:53.464Z,725.00
2022-09-23T17:46:53.394Z,724.00
2022-09-23T17:47:53.124Z,884.00
2022-09-23T17:48:53.229Z,864.00
2022-09-23T17:49:52.852Z,773.00
2022-09-23T17:50:53.193Z,759.00
2022-09-23T17:51:52.585Z,755.00
2022-09-23T17:52:52.579Z,752.00
2022-09-23T17:53:52.332Z,747.00
2022-09-23T17:54:52.374Z,743.00
2022-09-23T17:55:52.036Z,737.00
2022-09-23T17:56:52.135Z,724.00
2022-09-23T17:57:51.811Z,716.00
2022-09-23T17:58:51.751Z,711.00
2022-09-23T17:59:51.490Z,710.00
2022-09-23T18:00:51.639Z,707.00
2022-09-23T18:01:51.285Z,701.00
2022-09-23T18:02:51.418Z,695.00
2022-09-23T18:03:50.935Z,689.00
2022-09-23T18:04:50.928Z,685.00
2022-09-23T18:05:50.665Z,682.00
2022-09-23T18:06:50.899Z,678.00
2022-09-23T18:07:50.399Z,675.00
2022-09-23T18:08:50.444Z,671.00
2022-09-23T18:09:50.112Z,666.00
2022-09-23T18:10:50.200Z,667.00
2022-09-23T18:11:49.822Z,668.00
2022-09-23T18:12:49.797Z,665.00
2022-09-23T18:13:49.542Z,663.00
2022-09-23T18:14:49.681Z,664.00
2022-09-23T18:15:49.252Z,663.00
2022-09-23T18:16:49.289Z,665.00
2022-09-23T18:17:48.965Z,664.00
2022-09-23T18:18:48.989Z,659.00
2022-09-23T18:19:48.684Z,652.00
2022-09-23T18:20:48.792Z,649.00
2022-09-23T18:21:48.412Z,647.00
2022-09-23T18:22:48.427Z,639.00
2022-09-23T18:23:48.093Z,641.00
2022-09-23T18:24:48.127Z,639.00
2022-09-23T18:25:47.803Z,639.00
2022-09-23T18:26:47.842Z,638.00
2022-09-23T18:27:47.515Z,635.00
2022-09-23T18:28:47.542Z,633.00
2022-09-23T18:29:47.238Z,631.00
2022-09-23T18:30:47.263Z,630.00
2022-09-23T18:31:47.075Z,623.00
2022-09-23T18:32:46.928Z,627.00
2022-09-23T18:33:46.626Z,628.00
2022-09-23T18:34:46.701Z,624.00
2022-09-23T18:35:46.332Z,620.00
2022-09-23T18:36:46.302Z,620.00
2022-09-23T18:37:46.014Z,620.00
2022-09-23T18:38:46.135Z,620.00
2022-09-23T18:39:45.709Z,621.00
2022-09-23T18:40:45.733Z,623.00
2022-09-23T18:41:45.402Z,626.00
2022-09-23T18:42:45.481Z,631.00
2022-09-23T18:43:48.368Z,632.00
2022-09-23T18:44:45.164Z,631.00
2022-09-23T18:45:44.860Z,626.00
2022-09-23T18:46:44.876Z,623.00
2022-09-23T18:47:44.485Z,622.00
2022-09-23T18:48:44.570Z,620.00
2022-09-23T18:49:44.178Z,618.00
2022-09-23T18:50:44.271Z,615.00
2022-09-23T18:51:43.862Z,611.00
2022-09-23T18:52:43.956Z,607.00
2022-09-23T18:53:43.553Z,604.00
2022-09-23T18:54:43.630Z,603.00
2022-09-23T18:55:43.236Z,603.00
2022-09-23T18:56:43.264Z,601.00
2022-09-23T18:57:42.926Z,596.00
2022-09-23T18:58:43.003Z,597.00
2022-09-23T18:59:42.598Z,597.00
2022-09-23T19:00:42.784Z,594.00
2022-09-23T19:01:42.438Z,593.00
2022-09-23T19:02:42.423Z,587.00
2022-09-23T19:03:41.947Z,588.00
2022-09-23T19:04:41.913Z,583.00
2022-09-23T19:05:41.625Z,577.00
2022-09-23T19:06:41.600Z,577.00
2022-09-23T19:07:41.295Z,576.00
2022-09-23T19:08:41.516Z,586.00
2022-09-23T19:09:40.982Z,591.00
2022-09-23T19:10:41.068Z,588.00
2022-09-23T19:11:40.662Z,581.00
2022-09-23T19:12:40.630Z,705.00
2022-09-23T19:13:40.335Z,634.00
2022-09-23T19:14:40.433Z,627.00
2022-09-23T19:15:40.011Z,620.00
2022-09-23T19:16:40.236Z,603.00
2022-09-23T19:17:39.680Z,597.00
2022-09-23T19:18:39.632Z,590.00
2022-09-23T19:19:39.353Z,582.00
2022-09-23T19:20:39.469Z,579.00
2022-09-23T19:21:39.018Z,581.00
2022-09-23T19:22:39.227Z,579.00
2022-09-23T19:23:38.684Z,577.00
2022-09-23T19:24:38.641Z,573.00
2022-09-23T19:25:38.353Z,568.00
2022-09-23T19:26:38.534Z,563.00
2022-09-23T19:27:38.024Z,560.00
2022-09-23T19:28:38.117Z,557.00
2022-09-23T19:29:37.730Z,553.00
2022-09-23T19:30:37.664Z,550.00
2022-09-23T19:31:37.398Z,547.00
2022-09-23T19:32:37.528Z,541.00
2022-09-23T19:33:37.492Z,538.00
2022-09-23T19:34:36.872Z,535.00
2022-09-23T19:35:36.902Z,532.00
2022-09-23T19:36:36.544Z,531.00
2022-09-23T19:37:36.561Z,530.00
2022-09-23T19:38:36.438Z,529.00
2022-09-23T19:39:36.052Z,530.00
2022-09-23T19:40:36.202Z,524.00
2022-09-23T19:41:35.738Z,524.00
2022-09-23T19:42:35.684Z,522.00
2022-09-23T19:43:35.379Z,522.00
2022-09-23T19:44:35.617Z,523.00
2022-09-23T19:45:35.056Z,524.00
2022-09-23T19:46:35.060Z,524.00
2022-09-23T19:47:34.706Z,518.00
2022-09-23T19:48:34.713Z,518.00
2022-09-23T19:49:34.385Z,516.00
2022-09-23T19:50:34.475Z,516.00
2022-09-23T19:51:34.047Z,516.00
2022-09-23T19:52:34.028Z,514.00
2022-09-23T19:53:33.726Z,515.00
2022-09-23T19:54:33.778Z,512.00
2022-09-23T19:55:33.409Z,515.00
2022-09-23T19:56:33.459Z,514.00
2022-09-23T19:57:33.075Z,512.00
2022-09-23T19:58:33.150Z,513.00
2022-09-23T19:59:32.739Z,512.00
2022-09-23T20:00:32.732Z,521.00
2022-09-23T20:01:32.403Z,535.00
2022-09-23T20:02:32.612Z,552.00
2022-09-23T20:03:32.066Z,580.00
2022-09-23T20:04:32.079Z,592.00
2022-09-23T20:05:31.742Z,599.00
2022-09-23T20:06:31.705Z,602.00
2022-09-23T20:07:31.421Z,606.00
2022-09-23T20:08:31.556Z,613.00
2022-09-23T20:09:31.095Z,623.00
2022-09-23T20:10:31.162Z,628.00
2022-09-23T20:11:30.766Z,624.00
2022-09-23T20:12:30.827Z,625.00
2022-09-23T20:13:30.439Z,624.00
2022-09-23T20:14:30.506Z,621.00
2022-09-23T20:15:30.102Z,615.00
2022-09-23T20:16:30.306Z,609.00
2022-09-23T20:17:29.780Z,610.00
2022-09-23T20:18:29.842Z,614.00
2022-09-23T20:19:29.415Z,614.00
2022-09-23T20:20:29.468Z,613.00
2022-09-23T20:21:29.170Z,616.00
2022-09-23T20:22:33.109Z,620.00
2022-09-23T20:23:28.714Z,623.00
2022-09-23T20:24:28.774Z,621.00
2022-09-23T20:25:28.384Z,617.00
2022-09-23T20:26:28.428Z,609.00
2022-09-23T20:27:28.021Z,605.00
2022-09-23T20:28:28.091Z,601.00
2022-09-23T20:29:27.674Z,598.00
2022-09-23T20:30:27.733Z,593.00
2022-09-23T20:31:27.410Z,589.00
2022-09-23T20:32:27.427Z,589.00
2022-09-23T20:33:27.010Z,589.00
2022-09-23T20:34:27.259Z,589.00
2022-09-23T20:35:26.657Z,587.00
2022-09-23T20:36:26.603Z,589.00
2022-09-23T20:37:26.313Z,588.00
2022-09-23T20:38:26.456Z,587.00
2022-09-23T20:39:25.981Z,584.00
2022-09-23T20:40:26.095Z,576.00
2022-09-23T20:41:25.657Z,572.00
2022-09-23T20:42:25.587Z,570.00
2022-09-23T20:43:25.298Z,570.00
2022-09-23T20:44:25.362Z,573.00
2022-09-23T20:45:24.962Z,573.00
2022-09-23T20:46:25.027Z,574.00
2022-09-23T20:47:24.615Z,572.00
2022-09-23T20:48:24.578Z,570.00
2022-09-23T20:49:24.291Z,573.00
2022-09-23T20:50:24.692Z,572.00
2022-09-23T20:51:23.947Z,575.00
2022-09-23T20:52:23.904Z,572.00
2022-09-23T20:53:23.602Z,569.00
2022-09-23T20:54:23.659Z,570.00
2022-09-23T20:55:23.268Z,572.00
2022-09-23T20:56:23.298Z,574.00
2022-09-23T20:57:22.926Z,575.00
2022-09-23T20:58:22.969Z,578.00
2022-09-23T20:59:22.591Z,580.00
2022-09-23T21:00:22.643Z,579.00
2022-09-23T21:01:22.412Z,582.00
2022-09-23T21:02:22.403Z,585.00
2022-09-23T21:03:21.915Z,595.00
2022-09-23T21:04:21.950Z,610.00
2022-09-23T21:05:21.575Z,612.00
2022-09-23T21:06:21.635Z,609.00
2022-09-23T21:07:21.237Z,608.00
2022-09-23T21:08:21.315Z,611.00
2022-09-23T21:09:20.902Z,620.00
2022-09-23T21:10:21.070Z,623.00
2022-09-23T21:11:20.566Z,625.00
2022-09-23T21:12:20.513Z,630.00
2022-09-23T21:13:20.233Z,634.00
2022-09-23T21:14:20.394Z,637.00
2022-09-23T21:15:19.897Z,641.00
2022-09-23T21:16:20.062Z,643.00
2022-09-23T21:17:19.574Z,644.00
2022-09-23T21:18:22.558Z,650.00
2022-09-23T21:19:19.237Z,652.00
2022-09-23T21:20:19.338Z,651.00
2022-09-23T21:21:18.913Z,644.00
2022-09-23T21:22:18.827Z,644.00
2022-09-23T21:23:21.177Z,647.00
2022-09-23T21:24:45.660Z,648.00
2022-09-23T21:25:29.348Z,644.00
2022-09-23T21:26:18.060Z,642.00
2022-09-23T21:27:18.133Z,641.00
2022-09-23T21:28:17.719Z,641.00
2022-09-23T21:29:17.687Z,638.00
2022-09-23T21:30:17.383Z,634.00
2022-09-23T21:31:17.717Z,635.00
2022-09-23T21:32:17.051Z,632.00
2022-09-23T21:33:17.018Z,632.00
2022-09-23T21:34:16.721Z,629.00
2022-09-23T21:35:16.922Z,632.00
2022-09-23T21:36:16.377Z,638.00
2022-09-23T21:37:16.486Z,640.00
2022-09-23T21:38:16.035Z,639.00
2022-09-23T21:39:16.093Z,637.00
2022-09-23T21:40:15.722Z,635.00
2022-09-23T21:41:15.762Z,633.00
2022-09-23T21:42:15.359Z,633.00
2022-09-23T21:43:15.430Z,628.00
2022-09-23T21:44:15.022Z,624.00
2022-09-23T21:45:15.078Z,620.00
2022-09-23T21:46:14.804Z,619.00
2022-09-23T21:47:14.888Z,618.00
2022-09-23T21:48:14.355Z,618.00
2022-09-23T21:49:14.461Z,618.00
2022-09-23T21:50:14.021Z,619.00
2022-09-23T21:51:14.048Z,617.00
2022-09-23T21:52:13.686Z,616.00
2022-09-23T21:53:13.747Z,616.00
2022-09-23T21:54:13.364Z,613.00
2022-09-23T21:55:13.488Z,611.00
2022-09-23T21:56:16.793Z,608.00
2022-09-23T21:57:13.005Z,610.00
2022-09-23T21:58:12.695Z,613.00
2022-09-23T21:59:12.712Z,610.00
2022-09-23T22:00:12.370Z,607.00
2022-09-23T22:01:12.634Z,604.00
2022-09-23T22:02:12.015Z,601.00
2022-09-23T22:03:12.028Z,596.00
2022-09-23T22:04:11.995Z,592.00
2022-09-23T22:05:11.766Z,589.00
2022-09-23T22:06:11.382Z,584.00
2022-09-23T22:07:11.611Z,582.00
2022-09-23T22:08:11.019Z,580.00
2022-09-23T22:09:11.018Z,580.00
2022-09-23T22:10:10.688Z,580.00
2022-09-23T22:11:10.742Z,580.00
2022-09-23T22:12:10.349Z,576.00
2022-09-23T22:13:12.963Z,576.00
2022-09-23T22:14:10.027Z,575.00
2022-09-23T22:15:10.021Z,573.00